sensor_id;sensor_type;location;lat;lon;timestamp;P1;durP1;ratioP1;P2;durP2;ratioP2
11034;SDS011;5571;48.110;-1.706;2023-04-05T00:00:09;12.63;;;9.80;;
11034;SDS011;5571;48.110;-1.706;2023-04-05T00:02:35;13.27;;;9.63;;
11034;SDS011;5571;48.110;-1.706;2023-04-05T00:05:01;13.23;;;9.47;;
11034;SDS011;5571;48.110;-1.706;2023-04-05T00:07:27;12.60;;;10.90;;
11034;SDS011;5571;48.110;-1.706;2023-04-05T00:09:53;12.97;;;10.33;;
11034;SDS011;5571;48.110;-1.706;2023-04-05T00:12:19;14.07;;;9.57;;
11034;SDS011;5571;48.110;-1.706;2023-04-05T00:14:44;10.73;;;9.07;;
11034;SDS011;5571;48.110;-1.706;2023-04-05T00:17:10;12.47;;;9.87;;
11034;SDS011;5571;48.110;-1.706;2023-04-05T00:19:37;16.20;;;10.23;;
11034;SDS011;5571;48.110;-1.706;2023-04-05T00:22:03;14.57;;;9.80;;
11034;SDS011;5571;48.110;-1.706;2023-04-05T00:24:29;13.37;;;9.70;;
11034;SDS011;5571;48.110;-1.706;2023-04-05T00:26:57;14.10;;;10.10;;
11034;SDS011;5571;48.110;-1.706;2023-04-05T00:29:23;13.53;;;10.03;;
11034;SDS011;5571;48.110;-1.706;2023-04-05T00:31:48;13.73;;;10.23;;
11034;SDS011;5571;48.110;-1.706;2023-04-05T00:34:14;13.77;;;9.97;;
11034;SDS011;5571;48.110;-1.706;2023-04-05T00:36:40;18.23;;;10.17;;
11034;SDS011;5571;48.110;-1.706;2023-04-05T00:39:05;11.93;;;9.67;;
11034;SDS011;5571;48.110;-1.706;2023-04-05T00:41:31;14.67;;;10.50;;
11034;SDS011;5571;48.110;-1.706;2023-04-05T00:43:56;15.23;;;10.27;;
11034;SDS011;5571;48.110;-1.706;2023-04-05T00:46:23;15.57;;;10.53;;
11034;SDS011;5571;48.110;-1.706;2023-04-05T00:48:50;16.17;;;10.27;;
11034;SDS011;5571;48.110;-1.706;2023-04-05T00:51:16;14.80;;;11.07;;
11034;SDS011;5571;48.110;-1.706;2023-04-05T00:53:44;17.10;;;10.93;;
11034;SDS011;5571;48.110;-1.706;2023-04-05T00:56:11;16.97;;;10.50;;
11034;SDS011;5571;48.110;-1.706;2023-04-05T00:58:39;13.93;;;10.27;;
11034;SDS011;5571;48.110;-1.706;2023-04-05T01:01:07;13.13;;;10.17;;
11034;SDS011;5571;48.110;-1.706;2023-04-05T01:03:40;14.67;;;10.37;;
11034;SDS011;5571;48.110;-1.706;2023-04-05T01:06:15;16.80;;;10.70;;
11034;SDS011;5571;48.110;-1.706;2023-04-05T01:09:32;12.70;;;10.10;;
11034;SDS011;5571;48.110;-1.706;2023-04-05T01:12:08;12.47;;;10.07;;
11034;SDS011;5571;48.110;-1.706;2023-04-05T01:14:46;14.33;;;10.30;;
11034;SDS011;5571;48.110;-1.706;2023-04-05T01:17:16;15.10;;;10.97;;
11034;SDS011;5571;48.110;-1.706;2023-04-05T01:19:46;15.33;;;10.87;;
11034;SDS011;5571;48.110;-1.706;2023-04-05T01:30:40;13.53;;;10.83;;
11034;SDS011;5571;48.110;-1.706;2023-04-05T01:33:19;17.47;;;10.20;;
11034;SDS011;5571;48.110;-1.706;2023-04-05T01:38:28;13.53;;;11.33;;
11034;SDS011;5571;48.110;-1.706;2023-04-05T01:40:55;15.73;;;10.97;;
11034;SDS011;5571;48.110;-1.706;2023-04-05T01:43:21;15.80;;;11.80;;
11034;SDS011;5571;48.110;-1.706;2023-04-05T01:45:47;18.23;;;10.93;;
11034;SDS011;5571;48.110;-1.706;2023-04-05T01:48:13;13.17;;;10.83;;
11034;SDS011;5571;48.110;-1.706;2023-04-05T01:50:39;15.00;;;10.90;;
11034;SDS011;5571;48.110;-1.706;2023-04-05T01:53:06;18.60;;;10.73;;
11034;SDS011;5571;48.110;-1.706;2023-04-05T01:55:32;13.10;;;11.00;;
11034;SDS011;5571;48.110;-1.706;2023-04-05T01:57:57;14.00;;;11.10;;
11034;SDS011;5571;48.110;-1.706;2023-04-05T02:00:23;17.37;;;10.93;;
11034;SDS011;5571;48.110;-1.706;2023-04-05T02:02:49;17.13;;;10.93;;
11034;SDS011;5571;48.110;-1.706;2023-04-05T02:05:15;16.07;;;11.60;;
11034;SDS011;5571;48.110;-1.706;2023-04-05T02:07:41;14.40;;;10.60;;
11034;SDS011;5571;48.110;-1.706;2023-04-05T02:10:07;17.73;;;11.17;;
11034;SDS011;5571;48.110;-1.706;2023-04-05T02:12:33;13.27;;;10.30;;
11034;SDS011;5571;48.110;-1.706;2023-04-05T02:14:58;13.27;;;9.97;;
11034;SDS011;5571;48.110;-1.706;2023-04-05T02:17:25;14.77;;;10.10;;
11034;SDS011;5571;48.110;-1.706;2023-04-05T02:20:07;34.80;;;22.20;;
11034;SDS011;5571;48.110;-1.706;2023-04-05T02:22:36;91.00;;;48.83;;
11034;SDS011;5571;48.110;-1.706;2023-04-05T02:25:04;54.43;;;31.87;;
11034;SDS011;5571;48.110;-1.706;2023-04-05T02:27:31;50.93;;;31.50;;
11034;SDS011;5571;48.110;-1.706;2023-04-05T02:29:57;21.27;;;12.40;;
11034;SDS011;5571;48.110;-1.706;2023-04-05T02:32:23;24.50;;;15.80;;
11034;SDS011;5571;48.110;-1.706;2023-04-05T02:34:49;29.77;;;20.33;;
11034;SDS011;5571;48.110;-1.706;2023-04-05T02:37:14;19.27;;;14.10;;
11034;SDS011;5571;48.110;-1.706;2023-04-05T02:39:40;14.17;;;11.47;;
11034;SDS011;5571;48.110;-1.706;2023-04-05T02:42:06;18.80;;;11.30;;
11034;SDS011;5571;48.110;-1.706;2023-04-05T02:44:32;14.07;;;11.87;;
11034;SDS011;5571;48.110;-1.706;2023-04-05T02:46:57;19.40;;;12.07;;
11034;SDS011;5571;48.110;-1.706;2023-04-05T02:49:23;18.73;;;13.00;;
11034;SDS011;5571;48.110;-1.706;2023-04-05T02:51:48;14.57;;;11.60;;
11034;SDS011;5571;48.110;-1.706;2023-04-05T02:54:15;15.00;;;12.43;;
11034;SDS011;5571;48.110;-1.706;2023-04-05T02:56:40;14.13;;;11.70;;
11034;SDS011;5571;48.110;-1.706;2023-04-05T02:59:06;14.73;;;12.07;;
11034;SDS011;5571;48.110;-1.706;2023-04-05T03:01:32;24.27;;;12.00;;
11034;SDS011;5571;48.110;-1.706;2023-04-05T03:04:00;19.27;;;11.73;;
11034;SDS011;5571;48.110;-1.706;2023-04-05T03:06:26;14.10;;;11.50;;
11034;SDS011;5571;48.110;-1.706;2023-04-05T03:08:52;15.83;;;11.83;;
11034;SDS011;5571;48.110;-1.706;2023-04-05T03:11:18;16.37;;;11.97;;
11034;SDS011;5571;48.110;-1.706;2023-04-05T03:13:43;17.43;;;12.53;;
11034;SDS011;5571;48.110;-1.706;2023-04-05T03:16:09;15.30;;;11.17;;
11034;SDS011;5571;48.110;-1.706;2023-04-05T03:18:36;16.07;;;11.87;;
11034;SDS011;5571;48.110;-1.706;2023-04-05T03:21:02;17.57;;;12.13;;
11034;SDS011;5571;48.110;-1.706;2023-04-05T03:23:29;13.93;;;11.67;;
11034;SDS011;5571;48.110;-1.706;2023-04-05T03:25:58;16.63;;;12.27;;
11034;SDS011;5571;48.110;-1.706;2023-04-05T03:28:25;17.93;;;12.07;;
11034;SDS011;5571;48.110;-1.706;2023-04-05T03:30:52;17.87;;;11.97;;
11034;SDS011;5571;48.110;-1.706;2023-04-05T03:33:18;17.40;;;11.43;;
11034;SDS011;5571;48.110;-1.706;2023-04-05T03:35:44;15.10;;;11.80;;
11034;SDS011;5571;48.110;-1.706;2023-04-05T03:38:10;17.70;;;12.43;;
11034;SDS011;5571;48.110;-1.706;2023-04-05T03:40:36;16.00;;;11.57;;
11034;SDS011;5571;48.110;-1.706;2023-04-05T03:43:02;22.37;;;11.00;;
11034;SDS011;5571;48.110;-1.706;2023-04-05T03:45:28;14.50;;;10.77;;
11034;SDS011;5571;48.110;-1.706;2023-04-05T03:47:54;18.17;;;12.23;;
11034;SDS011;5571;48.110;-1.706;2023-04-05T03:50:20;17.63;;;12.60;;
11034;SDS011;5571;48.110;-1.706;2023-04-05T03:52:46;20.90;;;12.20;;
11034;SDS011;5571;48.110;-1.706;2023-04-05T03:55:12;17.83;;;12.40;;
11034;SDS011;5571;48.110;-1.706;2023-04-05T03:57:38;20.30;;;12.13;;
11034;SDS011;5571;48.110;-1.706;2023-04-05T04:00:04;18.00;;;12.53;;
11034;SDS011;5571;48.110;-1.706;2023-04-05T04:02:44;16.13;;;12.00;;
11034;SDS011;5571;48.110;-1.706;2023-04-05T04:05:11;20.53;;;12.53;;
11034;SDS011;5571;48.110;-1.706;2023-04-05T04:07:37;17.27;;;12.67;;
11034;SDS011;5571;48.110;-1.706;2023-04-05T04:10:04;14.77;;;11.33;;
11034;SDS011;5571;48.110;-1.706;2023-04-05T04:12:30;15.60;;;11.90;;
11034;SDS011;5571;48.110;-1.706;2023-04-05T04:14:55;17.10;;;11.83;;
11034;SDS011;5571;48.110;-1.706;2023-04-05T04:17:28;20.67;;;11.30;;
11034;SDS011;5571;48.110;-1.706;2023-04-05T04:19:55;16.37;;;11.23;;
11034;SDS011;5571;48.110;-1.706;2023-04-05T04:22:22;17.20;;;11.13;;
11034;SDS011;5571;48.110;-1.706;2023-04-05T04:24:51;12.03;;;10.53;;
11034;SDS011;5571;48.110;-1.706;2023-04-05T04:27:17;16.97;;;10.77;;
11034;SDS011;5571;48.110;-1.706;2023-04-05T04:29:45;18.00;;;10.70;;
11034;SDS011;5571;48.110;-1.706;2023-04-05T04:32:14;18.83;;;11.57;;
11034;SDS011;5571;48.110;-1.706;2023-04-05T04:34:41;15.13;;;11.03;;
11034;SDS011;5571;48.110;-1.706;2023-04-05T04:37:13;41.73;;;24.93;;
11034;SDS011;5571;48.110;-1.706;2023-04-05T04:39:42;25.73;;;17.03;;
11034;SDS011;5571;48.110;-1.706;2023-04-05T04:42:12;41.10;;;23.33;;
11034;SDS011;5571;48.110;-1.706;2023-04-05T04:44:44;54.80;;;33.07;;
11034;SDS011;5571;48.110;-1.706;2023-04-05T04:47:10;33.23;;;20.70;;
11034;SDS011;5571;48.110;-1.706;2023-04-05T04:49:37;23.03;;;12.57;;
11034;SDS011;5571;48.110;-1.706;2023-04-05T04:52:05;13.93;;;11.27;;
11034;SDS011;5571;48.110;-1.706;2023-04-05T04:54:31;14.70;;;11.50;;
11034;SDS011;5571;48.110;-1.706;2023-04-05T04:56:58;15.50;;;11.63;;
11034;SDS011;5571;48.110;-1.706;2023-04-05T04:59:26;15.90;;;11.80;;
11034;SDS011;5571;48.110;-1.706;2023-04-05T05:01:52;16.00;;;11.17;;
11034;SDS011;5571;48.110;-1.706;2023-04-05T05:04:18;15.83;;;11.73;;
11034;SDS011;5571;48.110;-1.706;2023-04-05T05:06:43;18.00;;;10.73;;
11034;SDS011;5571;48.110;-1.706;2023-04-05T05:09:09;16.20;;;10.57;;
11034;SDS011;5571;48.110;-1.706;2023-04-05T05:11:34;19.90;;;12.47;;
11034;SDS011;5571;48.110;-1.706;2023-04-05T05:14:00;16.37;;;12.37;;
11034;SDS011;5571;48.110;-1.706;2023-04-05T05:16:26;18.43;;;12.57;;
11034;SDS011;5571;48.110;-1.706;2023-04-05T05:18:52;20.37;;;13.00;;
11034;SDS011;5571;48.110;-1.706;2023-04-05T05:21:18;18.77;;;12.30;;
11034;SDS011;5571;48.110;-1.706;2023-04-05T05:23:44;16.73;;;11.97;;
11034;SDS011;5571;48.110;-1.706;2023-04-05T05:26:11;17.43;;;12.73;;
11034;SDS011;5571;48.110;-1.706;2023-04-05T05:28:38;15.87;;;12.30;;
11034;SDS011;5571;48.110;-1.706;2023-04-05T05:31:04;25.63;;;13.80;;
11034;SDS011;5571;48.110;-1.706;2023-04-05T05:33:30;20.67;;;13.93;;
11034;SDS011;5571;48.110;-1.706;2023-04-05T05:35:56;22.07;;;14.37;;
11034;SDS011;5571;48.110;-1.706;2023-04-05T05:38:22;20.17;;;13.40;;
11034;SDS011;5571;48.110;-1.706;2023-04-05T05:40:47;21.00;;;13.87;;
11034;SDS011;5571;48.110;-1.706;2023-04-05T05:43:18;17.77;;;13.90;;
11034;SDS011;5571;48.110;-1.706;2023-04-05T05:45:44;19.63;;;13.83;;
11034;SDS011;5571;48.110;-1.706;2023-04-05T05:48:10;15.73;;;13.53;;
11034;SDS011;5571;48.110;-1.706;2023-04-05T05:50:36;19.53;;;14.10;;
11034;SDS011;5571;48.110;-1.706;2023-04-05T05:53:03;16.73;;;13.93;;
11034;SDS011;5571;48.110;-1.706;2023-04-05T05:55:29;19.03;;;13.10;;
11034;SDS011;5571;48.110;-1.706;2023-04-05T05:57:55;24.17;;;14.20;;
11034;SDS011;5571;48.110;-1.706;2023-04-05T06:00:21;20.77;;;13.07;;
11034;SDS011;5571;48.110;-1.706;2023-04-05T06:02:46;20.30;;;12.90;;
11034;SDS011;5571;48.110;-1.706;2023-04-05T06:05:13;18.40;;;13.70;;
11034;SDS011;5571;48.110;-1.706;2023-04-05T06:07:39;16.70;;;13.03;;
11034;SDS011;5571;48.110;-1.706;2023-04-05T06:10:05;20.90;;;13.20;;
11034;SDS011;5571;48.110;-1.706;2023-04-05T06:12:31;18.97;;;12.60;;
11034;SDS011;5571;48.110;-1.706;2023-04-05T06:14:57;22.37;;;13.17;;
11034;SDS011;5571;48.110;-1.706;2023-04-05T06:17:23;29.93;;;12.03;;
11034;SDS011;5571;48.110;-1.706;2023-04-05T06:19:48;21.13;;;12.50;;
11034;SDS011;5571;48.110;-1.706;2023-04-05T06:22:14;24.30;;;12.93;;
11034;SDS011;5571;48.110;-1.706;2023-04-05T06:24:40;23.20;;;13.47;;
11034;SDS011;5571;48.110;-1.706;2023-04-05T06:27:06;21.53;;;13.00;;
11034;SDS011;5571;48.110;-1.706;2023-04-05T06:29:31;26.70;;;12.93;;
11034;SDS011;5571;48.110;-1.706;2023-04-05T06:31:57;23.47;;;13.00;;
11034;SDS011;5571;48.110;-1.706;2023-04-05T06:34:23;29.90;;;13.57;;
11034;SDS011;5571;48.110;-1.706;2023-04-05T06:36:48;17.50;;;12.30;;
11034;SDS011;5571;48.110;-1.706;2023-04-05T06:39:14;26.47;;;14.40;;
11034;SDS011;5571;48.110;-1.706;2023-04-05T06:41:40;23.03;;;13.57;;
11034;SDS011;5571;48.110;-1.706;2023-04-05T06:44:05;24.30;;;14.67;;
11034;SDS011;5571;48.110;-1.706;2023-04-05T06:46:31;21.90;;;15.17;;
11034;SDS011;5571;48.110;-1.706;2023-04-05T06:48:57;19.90;;;14.53;;
11034;SDS011;5571;48.110;-1.706;2023-04-05T06:51:22;23.30;;;14.57;;
11034;SDS011;5571;48.110;-1.706;2023-04-05T06:53:49;23.27;;;15.60;;
11034;SDS011;5571;48.110;-1.706;2023-04-05T06:56:15;25.03;;;14.90;;
11034;SDS011;5571;48.110;-1.706;2023-04-05T06:58:41;21.77;;;15.40;;
11034;SDS011;5571;48.110;-1.706;2023-04-05T07:01:06;23.57;;;15.37;;
11034;SDS011;5571;48.110;-1.706;2023-04-05T07:03:32;22.97;;;14.27;;
11034;SDS011;5571;48.110;-1.706;2023-04-05T07:05:58;28.67;;;15.40;;
11034;SDS011;5571;48.110;-1.706;2023-04-05T07:08:25;25.13;;;15.50;;
11034;SDS011;5571;48.110;-1.706;2023-04-05T07:10:52;25.53;;;16.50;;
11034;SDS011;5571;48.110;-1.706;2023-04-05T07:13:18;25.33;;;15.77;;
11034;SDS011;5571;48.110;-1.706;2023-04-05T07:15:45;25.27;;;15.30;;
11034;SDS011;5571;48.110;-1.706;2023-04-05T07:18:11;22.03;;;16.37;;
11034;SDS011;5571;48.110;-1.706;2023-04-05T07:20:39;20.17;;;15.33;;
11034;SDS011;5571;48.110;-1.706;2023-04-05T07:23:05;22.37;;;14.37;;
11034;SDS011;5571;48.110;-1.706;2023-04-05T07:25:31;20.93;;;14.43;;
11034;SDS011;5571;48.110;-1.706;2023-04-05T07:27:57;25.97;;;14.20;;
11034;SDS011;5571;48.110;-1.706;2023-04-05T07:30:24;29.50;;;15.80;;
11034;SDS011;5571;48.110;-1.706;2023-04-05T07:32:50;25.67;;;14.97;;
11034;SDS011;5571;48.110;-1.706;2023-04-05T07:35:16;22.23;;;16.03;;
11034;SDS011;5571;48.110;-1.706;2023-04-05T07:37:42;29.20;;;14.63;;
11034;SDS011;5571;48.110;-1.706;2023-04-05T07:40:07;23.67;;;14.53;;
11034;SDS011;5571;48.110;-1.706;2023-04-05T07:42:35;21.87;;;14.83;;
11034;SDS011;5571;48.110;-1.706;2023-04-05T07:45:01;22.00;;;14.43;;
11034;SDS011;5571;48.110;-1.706;2023-04-05T07:47:27;24.97;;;14.57;;
11034;SDS011;5571;48.110;-1.706;2023-04-05T07:49:52;22.67;;;15.53;;
11034;SDS011;5571;48.110;-1.706;2023-04-05T07:52:18;21.47;;;15.20;;
11034;SDS011;5571;48.110;-1.706;2023-04-05T07:54:44;23.67;;;14.90;;
11034;SDS011;5571;48.110;-1.706;2023-04-05T07:57:17;24.17;;;15.00;;
11034;SDS011;5571;48.110;-1.706;2023-04-05T07:59:43;19.77;;;14.63;;
11034;SDS011;5571;48.110;-1.706;2023-04-05T08:02:09;20.40;;;14.07;;
11034;SDS011;5571;48.110;-1.706;2023-04-05T08:04:35;16.93;;;14.67;;
11034;SDS011;5571;48.110;-1.706;2023-04-05T08:07:01;20.23;;;13.93;;
11034;SDS011;5571;48.110;-1.706;2023-04-05T08:09:27;18.23;;;12.83;;
11034;SDS011;5571;48.110;-1.706;2023-04-05T08:11:52;19.57;;;13.43;;
11034;SDS011;5571;48.110;-1.706;2023-04-05T08:14:18;19.00;;;12.37;;
11034;SDS011;5571;48.110;-1.706;2023-04-05T08:16:43;19.43;;;12.73;;
11034;SDS011;5571;48.110;-1.706;2023-04-05T08:19:09;20.30;;;14.60;;
11034;SDS011;5571;48.110;-1.706;2023-04-05T08:21:35;21.60;;;13.27;;
11034;SDS011;5571;48.110;-1.706;2023-04-05T08:24:00;20.03;;;12.90;;
11034;SDS011;5571;48.110;-1.706;2023-04-05T08:26:26;18.10;;;13.20;;
11034;SDS011;5571;48.110;-1.706;2023-04-05T08:28:52;16.67;;;12.87;;
11034;SDS011;5571;48.110;-1.706;2023-04-05T08:31:17;19.93;;;12.37;;
11034;SDS011;5571;48.110;-1.706;2023-04-05T08:33:44;21.30;;;13.03;;
11034;SDS011;5571;48.110;-1.706;2023-04-05T08:36:10;19.87;;;13.33;;
11034;SDS011;5571;48.110;-1.706;2023-04-05T08:38:36;21.50;;;13.10;;
11034;SDS011;5571;48.110;-1.706;2023-04-05T08:46:16;15.47;;;11.93;;
11034;SDS011;5571;48.110;-1.706;2023-04-05T08:48:44;22.60;;;12.33;;
11034;SDS011;5571;48.110;-1.706;2023-04-05T08:51:10;23.47;;;12.70;;
11034;SDS011;5571;48.110;-1.706;2023-04-05T08:53:36;20.53;;;11.77;;
11034;SDS011;5571;48.110;-1.706;2023-04-05T08:56:02;16.83;;;12.30;;
11034;SDS011;5571;48.110;-1.706;2023-04-05T08:58:28;21.37;;;13.50;;
11034;SDS011;5571;48.110;-1.706;2023-04-05T09:00:55;24.87;;;12.10;;
11034;SDS011;5571;48.110;-1.706;2023-04-05T09:03:43;21.93;;;12.97;;
11034;SDS011;5571;48.110;-1.706;2023-04-05T09:06:09;21.60;;;14.67;;
11034;SDS011;5571;48.110;-1.706;2023-04-05T09:08:37;24.20;;;13.63;;
11034;SDS011;5571;48.110;-1.706;2023-04-05T09:11:03;19.50;;;13.20;;
11034;SDS011;5571;48.110;-1.706;2023-04-05T09:13:29;22.07;;;12.87;;
11034;SDS011;5571;48.110;-1.706;2023-04-05T09:15:55;21.67;;;13.30;;
11034;SDS011;5571;48.110;-1.706;2023-04-05T09:18:21;18.03;;;12.10;;
11034;SDS011;5571;48.110;-1.706;2023-04-05T09:20:47;18.23;;;11.40;;
11034;SDS011;5571;48.110;-1.706;2023-04-05T09:23:13;17.10;;;10.60;;
11034;SDS011;5571;48.110;-1.706;2023-04-05T09:25:39;16.00;;;10.43;;
11034;SDS011;5571;48.110;-1.706;2023-04-05T09:28:06;18.53;;;10.50;;
11034;SDS011;5571;48.110;-1.706;2023-04-05T09:30:33;14.53;;;10.90;;
11034;SDS011;5571;48.110;-1.706;2023-04-05T09:33:01;17.13;;;12.00;;
11034;SDS011;5571;48.110;-1.706;2023-04-05T09:35:31;13.37;;;10.40;;
11034;SDS011;5571;48.110;-1.706;2023-04-05T09:37:58;28.70;;;9.90;;
11034;SDS011;5571;48.110;-1.706;2023-04-05T09:40:39;17.03;;;9.30;;
11034;SDS011;5571;48.110;-1.706;2023-04-05T09:43:10;14.40;;;9.40;;
11034;SDS011;5571;48.110;-1.706;2023-04-05T09:45:40;11.67;;;9.17;;
11034;SDS011;5571;48.110;-1.706;2023-04-05T09:48:07;14.80;;;9.33;;
11034;SDS011;5571;48.110;-1.706;2023-04-05T09:50:33;12.93;;;9.83;;
11034;SDS011;5571;48.110;-1.706;2023-04-05T09:53:07;12.83;;;9.33;;
11034;SDS011;5571;48.110;-1.706;2023-04-05T09:55:40;17.77;;;10.27;;
11034;SDS011;5571;48.110;-1.706;2023-04-05T09:58:17;19.97;;;9.20;;
11034;SDS011;5571;48.110;-1.706;2023-04-05T10:00:48;16.80;;;9.70;;
11034;SDS011;5571;48.110;-1.706;2023-04-05T10:03:17;15.00;;;9.53;;
11034;SDS011;5571;48.110;-1.706;2023-04-05T10:05:44;14.43;;;9.27;;
11034;SDS011;5571;48.110;-1.706;2023-04-05T10:08:11;16.47;;;8.70;;
11034;SDS011;5571;48.110;-1.706;2023-04-05T10:10:45;14.30;;;7.87;;
11034;SDS011;5571;48.110;-1.706;2023-04-05T10:13:11;10.63;;;8.63;;
11034;SDS011;5571;48.110;-1.706;2023-04-05T10:15:38;11.67;;;8.73;;
11034;SDS011;5571;48.110;-1.706;2023-04-05T10:18:13;12.33;;;9.10;;
11034;SDS011;5571;48.110;-1.706;2023-04-05T10:20:47;12.30;;;9.07;;
11034;SDS011;5571;48.110;-1.706;2023-04-05T10:23:21;12.43;;;8.83;;
11034;SDS011;5571;48.110;-1.706;2023-04-05T10:28:36;13.80;;;8.83;;
11034;SDS011;5571;48.110;-1.706;2023-04-05T10:34:04;14.93;;;8.43;;
11034;SDS011;5571;48.110;-1.706;2023-04-05T10:39:22;12.83;;;8.13;;
11034;SDS011;5571;48.110;-1.706;2023-04-05T10:42:02;12.87;;;7.90;;
11034;SDS011;5571;48.110;-1.706;2023-04-05T10:44:35;12.83;;;8.23;;
11034;SDS011;5571;48.110;-1.706;2023-04-05T10:47:03;11.53;;;7.90;;
11034;SDS011;5571;48.110;-1.706;2023-04-05T10:52:12;13.70;;;7.53;;
11034;SDS011;5571;48.110;-1.706;2023-04-05T10:54:39;13.57;;;7.60;;
11034;SDS011;5571;48.110;-1.706;2023-04-05T10:57:06;11.20;;;7.70;;
11034;SDS011;5571;48.110;-1.706;2023-04-05T10:59:33;10.97;;;7.43;;
11034;SDS011;5571;48.110;-1.706;2023-04-05T11:02:04;10.03;;;7.57;;
11034;SDS011;5571;48.110;-1.706;2023-04-05T11:04:31;10.57;;;7.43;;
11034;SDS011;5571;48.110;-1.706;2023-04-05T11:09:55;9.20;;;7.60;;
11034;SDS011;5571;48.110;-1.706;2023-04-05T11:18:04;8.90;;;6.97;;
11034;SDS011;5571;48.110;-1.706;2023-04-05T11:20:43;11.27;;;6.97;;
11034;SDS011;5571;48.110;-1.706;2023-04-05T11:23:12;7.93;;;6.60;;
11034;SDS011;5571;48.110;-1.706;2023-04-05T11:25:39;8.23;;;6.53;;
11034;SDS011;5571;48.110;-1.706;2023-04-05T11:28:28;10.00;;;6.93;;
11034;SDS011;5571;48.110;-1.706;2023-04-05T11:30:55;9.10;;;6.87;;
11034;SDS011;5571;48.110;-1.706;2023-04-05T11:33:38;8.93;;;7.37;;
11034;SDS011;5571;48.110;-1.706;2023-04-05T11:36:32;8.90;;;7.40;;
11034;SDS011;5571;48.110;-1.706;2023-04-05T11:41:51;8.73;;;7.03;;
11034;SDS011;5571;48.110;-1.706;2023-04-05T11:44:41;9.10;;;6.50;;
11034;SDS011;5571;48.110;-1.706;2023-04-05T11:47:08;8.53;;;7.50;;
11034;SDS011;5571;48.110;-1.706;2023-04-05T11:49:35;7.33;;;6.43;;
11034;SDS011;5571;48.110;-1.706;2023-04-05T11:52:12;9.23;;;6.80;;
11034;SDS011;5571;48.110;-1.706;2023-04-05T11:54:42;8.83;;;6.93;;
11034;SDS011;5571;48.110;-1.706;2023-04-05T11:57:22;10.30;;;6.30;;
11034;SDS011;5571;48.110;-1.706;2023-04-05T11:59:48;11.23;;;7.40;;
11034;SDS011;5571;48.110;-1.706;2023-04-05T12:02:18;8.63;;;6.57;;
11034;SDS011;5571;48.110;-1.706;2023-04-05T12:04:52;9.17;;;6.50;;
11034;SDS011;5571;48.110;-1.706;2023-04-05T12:07:22;8.97;;;7.13;;
11034;SDS011;5571;48.110;-1.706;2023-04-05T12:10:02;12.57;;;7.53;;
11034;SDS011;5571;48.110;-1.706;2023-04-05T12:12:41;9.80;;;7.30;;
11034;SDS011;5571;48.110;-1.706;2023-04-05T12:15:09;9.20;;;6.50;;
11034;SDS011;5571;48.110;-1.706;2023-04-05T12:17:41;10.60;;;6.93;;
11034;SDS011;5571;48.110;-1.706;2023-04-05T12:20:09;9.77;;;6.90;;
11034;SDS011;5571;48.110;-1.706;2023-04-05T12:22:36;12.80;;;7.50;;
11034;SDS011;5571;48.110;-1.706;2023-04-05T12:25:03;14.47;;;6.63;;
11034;SDS011;5571;48.110;-1.706;2023-04-05T12:27:29;13.90;;;7.10;;
11034;SDS011;5571;48.110;-1.706;2023-04-05T12:30:05;15.73;;;7.77;;
11034;SDS011;5571;48.110;-1.706;2023-04-05T12:32:40;14.63;;;7.63;;
11034;SDS011;5571;48.110;-1.706;2023-04-05T12:35:28;10.63;;;7.77;;
11034;SDS011;5571;48.110;-1.706;2023-04-05T12:37:59;7.77;;;6.90;;
11034;SDS011;5571;48.110;-1.706;2023-04-05T12:40:26;12.80;;;7.03;;
11034;SDS011;5571;48.110;-1.706;2023-04-05T12:42:54;11.17;;;6.67;;
11034;SDS011;5571;48.110;-1.706;2023-04-05T12:45:32;11.83;;;6.83;;
11034;SDS011;5571;48.110;-1.706;2023-04-05T12:51:00;7.97;;;6.50;;
11034;SDS011;5571;48.110;-1.706;2023-04-05T12:53:29;11.83;;;7.93;;
11034;SDS011;5571;48.110;-1.706;2023-04-05T12:55:55;9.77;;;7.00;;
11034;SDS011;5571;48.110;-1.706;2023-04-05T12:58:26;14.43;;;7.33;;
11034;SDS011;5571;48.110;-1.706;2023-04-05T13:01:00;10.07;;;6.77;;
11034;SDS011;5571;48.110;-1.706;2023-04-05T13:03:26;11.33;;;7.73;;
11034;SDS011;5571;48.110;-1.706;2023-04-05T13:05:52;11.20;;;7.03;;
11034;SDS011;5571;48.110;-1.706;2023-04-05T13:08:17;7.43;;;6.30;;
11034;SDS011;5571;48.110;-1.706;2023-04-05T13:10:46;12.50;;;6.10;;
11034;SDS011;5571;48.110;-1.706;2023-04-05T13:13:13;8.47;;;6.13;;
11034;SDS011;5571;48.110;-1.706;2023-04-05T13:15:40;9.80;;;6.37;;
11034;SDS011;5571;48.110;-1.706;2023-04-05T13:18:06;9.57;;;7.10;;
11034;SDS011;5571;48.110;-1.706;2023-04-05T13:20:33;11.77;;;6.90;;
11034;SDS011;5571;48.110;-1.706;2023-04-05T13:22:59;9.37;;;6.70;;
11034;SDS011;5571;48.110;-1.706;2023-04-05T13:25:25;11.47;;;6.87;;
11034;SDS011;5571;48.110;-1.706;2023-04-05T13:27:51;9.70;;;7.10;;
11034;SDS011;5571;48.110;-1.706;2023-04-05T13:30:17;9.90;;;7.43;;
11034;SDS011;5571;48.110;-1.706;2023-04-05T13:32:43;11.03;;;6.87;;
11034;SDS011;5571;48.110;-1.706;2023-04-05T13:35:09;7.80;;;6.83;;
11034;SDS011;5571;48.110;-1.706;2023-04-05T13:37:35;7.70;;;7.00;;
11034;SDS011;5571;48.110;-1.706;2023-04-05T13:40:00;8.17;;;6.73;;
11034;SDS011;5571;48.110;-1.706;2023-04-05T13:42:26;14.77;;;7.43;;
11034;SDS011;5571;48.110;-1.706;2023-04-05T13:44:52;7.83;;;6.37;;
11034;SDS011;5571;48.110;-1.706;2023-04-05T13:47:17;7.70;;;6.73;;
11034;SDS011;5571;48.110;-1.706;2023-04-05T13:49:44;9.40;;;6.70;;
11034;SDS011;5571;48.110;-1.706;2023-04-05T13:52:10;9.33;;;6.67;;
11034;SDS011;5571;48.110;-1.706;2023-04-05T13:54:35;10.37;;;6.93;;
11034;SDS011;5571;48.110;-1.706;2023-04-05T13:57:01;9.00;;;7.00;;
11034;SDS011;5571;48.110;-1.706;2023-04-05T13:59:27;8.83;;;6.47;;
11034;SDS011;5571;48.110;-1.706;2023-04-05T14:01:53;11.63;;;7.33;;
11034;SDS011;5571;48.110;-1.706;2023-04-05T14:04:18;10.47;;;7.07;;
11034;SDS011;5571;48.110;-1.706;2023-04-05T14:06:44;9.07;;;7.27;;
11034;SDS011;5571;48.110;-1.706;2023-04-05T14:09:10;8.80;;;6.97;;
11034;SDS011;5571;48.110;-1.706;2023-04-05T14:11:36;8.53;;;6.73;;
11034;SDS011;5571;48.110;-1.706;2023-04-05T14:14:02;8.87;;;6.93;;
11034;SDS011;5571;48.110;-1.706;2023-04-05T14:16:28;10.67;;;7.10;;
11034;SDS011;5571;48.110;-1.706;2023-04-05T14:18:54;8.87;;;6.97;;
11034;SDS011;5571;48.110;-1.706;2023-04-05T14:21:20;10.23;;;7.13;;
11034;SDS011;5571;48.110;-1.706;2023-04-05T14:23:45;9.07;;;7.20;;
11034;SDS011;5571;48.110;-1.706;2023-04-05T14:26:14;10.30;;;7.27;;
11034;SDS011;5571;48.110;-1.706;2023-04-05T14:28:40;10.97;;;6.30;;
11034;SDS011;5571;48.110;-1.706;2023-04-05T14:31:06;9.20;;;6.40;;
11034;SDS011;5571;48.110;-1.706;2023-04-05T14:33:31;8.30;;;6.77;;
11034;SDS011;5571;48.110;-1.706;2023-04-05T14:35:57;9.53;;;6.23;;
11034;SDS011;5571;48.110;-1.706;2023-04-05T14:38:22;9.43;;;6.73;;
11034;SDS011;5571;48.110;-1.706;2023-04-05T14:40:49;6.83;;;6.20;;
11034;SDS011;5571;48.110;-1.706;2023-04-05T14:43:14;9.33;;;6.90;;
11034;SDS011;5571;48.110;-1.706;2023-04-05T14:45:40;7.03;;;5.83;;
11034;SDS011;5571;48.110;-1.706;2023-04-05T14:48:06;7.00;;;6.30;;
11034;SDS011;5571;48.110;-1.706;2023-04-05T14:50:32;8.67;;;6.10;;
11034;SDS011;5571;48.110;-1.706;2023-04-05T14:52:58;11.40;;;7.00;;
11034;SDS011;5571;48.110;-1.706;2023-04-05T14:55:24;8.93;;;6.83;;
11034;SDS011;5571;48.110;-1.706;2023-04-05T14:57:50;10.17;;;6.20;;
11034;SDS011;5571;48.110;-1.706;2023-04-05T15:00:16;10.33;;;6.87;;
11034;SDS011;5571;48.110;-1.706;2023-04-05T15:02:42;9.83;;;6.97;;
11034;SDS011;5571;48.110;-1.706;2023-04-05T15:05:09;12.63;;;6.80;;
11034;SDS011;5571;48.110;-1.706;2023-04-05T15:07:35;10.00;;;6.47;;
11034;SDS011;5571;48.110;-1.706;2023-04-05T15:10:01;9.83;;;6.83;;
11034;SDS011;5571;48.110;-1.706;2023-04-05T15:12:26;9.30;;;6.77;;